Time;durP1;ratioP1;P1;durP2;ratioP2;P2;SDS_P1;SDS_P2;PMS_P1;PMS_P2;Temp;Humidity;BMP_temperature;BMP_pressure;BME280_temperature;BME280_humidity;BME280_pressure;Samples;Min_cycle;Max_cycle;Signal;HPM_P1;HPM_P2
2023/09/11 00:02:20;;;;;;;13.87;12.57;;;25.70;83.00;;;;;;5035889;28;20979;-73
2023/09/11 00:04:47;;;;;;;13.37;12.03;;;25.70;83.10;;;;;;5035578;28;20940;-74
2023/09/11 00:07:14;;;;;;;14.90;13.30;;;25.70;83.40;;;;;;5035233;28;20478;-74
2023/09/11 00:09:40;;;;;;;15.90;12.57;;;25.70;83.60;;;;;;5034260;28;20443;-73
2023/09/11 00:12:08;;;;;;;14.40;13.00;;;25.60;83.60;;;;;;5035290;28;20798;-73
2023/09/11 00:14:34;;;;;;;15.33;13.17;;;25.60;83.60;;;;;;5035005;28;20939;-73
2023/09/11 00:17:01;;;;;;;15.23;13.80;;;25.60;83.70;;;;;;5033952;28;20447;-74
2023/09/11 00:19:29;;;;;;;14.87;13.53;;;25.60;83.90;;;;;;5035377;28;20804;-72
2023/09/11 00:21:56;;;;;;;15.27;13.67;;;25.60;83.90;;;;;;5035210;28;20453;-71
2023/09/11 00:24:23;;;;;;;15.20;13.80;;;25.60;84.00;;;;;;5035014;28;20442;-72
2023/09/11 00:26:50;;;;;;;15.20;13.60;;;25.60;84.00;;;;;;5035075;28;20451;-72
2023/09/11 00:29:17;;;;;;;14.57;13.07;;;25.50;83.80;;;;;;5034786;28;20443;-72
2023/09/11 00:31:44;;;;;;;16.20;13.57;;;25.50;83.90;;;;;;5034840;28;20936;-71
2023/09/11 00:34:11;;;;;;;17.20;14.80;;;25.40;84.00;;;;;;5035232;28;20459;-71
2023/09/11 00:36:39;;;;;;;16.10;14.40;;;25.40;84.10;;;;;;5034893;28;20451;-72
2023/09/11 00:39:06;;;;;;;15.00;13.70;;;25.30;83.80;;;;;;5034723;28;20442;-71
2023/09/11 00:41:32;;;;;;;16.53;14.80;;;25.20;83.50;;;;;;5034658;28;20450;-71
2023/09/11 00:44:01;;;;;;;18.33;13.63;;;25.10;83.70;;;;;;5035098;28;20470;-71
2023/09/11 00:46:28;;;;;;;16.40;14.73;;;25.10;83.90;;;;;;5034572;28;20451;-72
2023/09/11 00:48:56;;;;;;;15.00;13.40;;;25.10;84.10;;;;;;5034451;28;20485;-72
2023/09/11 00:51:24;;;;;;;15.00;13.23;;;25.10;84.30;;;;;;5053415;28;20514;-70
2023/09/11 00:53:52;;;;;;;15.93;14.20;;;25.10;84.50;;;;;;5040368;28;20490;-70
2023/09/11 00:56:19;;;;;;;15.00;13.33;;;25.10;84.70;;;;;;5039728;28;20452;-71
2023/09/11 00:58:47;;;;;;;15.47;13.87;;;25.00;84.70;;;;;;5038680;28;20438;-72
2023/09/11 01:01:14;;;;;;;14.50;13.00;;;25.00;84.90;;;;;;5038000;28;20446;-71
2023/09/11 01:03:41;;;;;;;15.07;13.63;;;25.00;85.10;;;;;;5036801;28;20509;-72
2023/09/11 01:06:10;;;;;;;14.83;13.43;;;24.90;85.30;;;;;;5037602;28;20450;-72
2023/09/11 01:08:37;;;;;;;14.37;13.07;;;24.90;85.50;;;;;;5036638;28;20475;-72
2023/09/11 01:11:05;;;;;;;15.10;12.87;;;24.90;85.60;;;;;;5036378;28;20442;-71
2023/09/11 01:13:32;;;;;;;15.43;13.50;;;24.80;85.70;;;;;;5036142;28;20470;-72
2023/09/11 01:16:06;;;;;;;16.33;13.10;;;24.80;86.00;;;;;;5036473;28;20454;-72
2023/09/11 01:18:41;;;;;;;15.83;13.87;;;24.80;86.10;;;;;;5035790;28;20423;-71
2023/09/11 01:21:32;;;;;;;15.30;13.50;;;24.80;86.20;;;;;;5035000;28;20946;-72
2023/09/11 01:24:22;;;;;;;14.50;12.67;;;24.70;86.30;;;;;;5035978;28;20463;-71
2023/09/11 01:27:12;;;;;;;18.90;14.03;;;24.70;86.40;;;;;;5035491;28;20510;-72
2023/09/11 01:29:42;;;;;;;14.17;12.73;;;24.70;86.60;;;;;;5039227;28;20417;-72
2023/09/11 01:32:11;;;;;;;14.73;13.37;;;24.70;86.80;;;;;;5040119;28;20474;-71
2023/09/11 01:34:37;;;;;;;14.47;13.13;;;24.60;86.70;;;;;;5035772;28;20447;-71
2023/09/11 01:37:04;;;;;;;16.10;14.50;;;24.60;86.90;;;;;;5035852;28;20454;-71
2023/09/11 01:39:31;;;;;;;17.00;14.70;;;24.50;87.10;;;;;;5035486;28;20451;-71
2023/09/11 01:42:05;;;;;;;17.03;14.73;;;24.40;87.20;;;;;;5033081;28;20550;-70
2023/09/11 01:44:38;;;;;;;17.70;15.20;;;24.40;87.50;;;;;;5034604;28;20517;-71
2023/09/11 01:47:08;;;;;;;17.23;15.43;;;24.30;87.60;;;;;;5033973;28;20433;-71
2023/09/11 01:49:38;;;;;;;15.77;14.47;;;24.20;87.60;;;;;;5034312;28;20513;-72
2023/09/11 01:52:07;;;;;;;17.40;15.67;;;24.20;87.70;;;;;;5033892;28;20431;-71
2023/09/11 01:54:35;;;;;;;16.17;14.63;;;24.20;87.60;;;;;;5033882;28;20874;-71
2023/09/11 01:57:02;;;;;;;15.87;14.07;;;24.10;87.70;;;;;;5035547;28;20449;-72
2023/09/11 01:59:29;;;;;;;16.67;15.03;;;24.00;87.70;;;;;;5037816;28;20453;-72
2023/09/11 02:01:56;;;;;;;17.07;14.47;;;24.10;88.00;;;;;;5037753;28;20456;-71
2023/09/11 02:04:25;;;;;;;16.47;14.60;;;24.10;88.40;;;;;;5037516;28;20955;-72
2023/09/11 02:06:52;;;;;;;15.93;14.33;;;24.10;88.70;;;;;;5037383;28;20442;-72
2023/09/11 02:09:18;;;;;;;16.87;15.33;;;24.00;88.50;;;;;;5037893;28;20481;-71
2023/09/11 02:11:45;;;;;;;19.47;16.33;;;24.00;88.60;;;;;;5037206;28;20447;-72
2023/09/11 02:14:12;;;;;;;22.33;16.43;;;23.90;88.70;;;;;;5037767;28;20462;-71
2023/09/11 02:16:39;;;;;;;20.33;15.93;;;23.90;89.00;;;;;;5035712;28;20437;-72
2023/09/11 02:19:06;;;;;;;19.50;15.53;;;23.90;89.90;;;;;;5037370;28;20204;-72
2023/09/11 02:21:36;;;;;;;17.07;15.03;;;23.90;89.20;;;;;;5036528;28;20818;-71
2023/09/11 02:24:03;;;;;;;18.27;16.33;;;23.80;89.20;;;;;;5037199;28;20466;-72
2023/09/11 02:26:30;;;;;;;17.13;15.43;;;23.90;89.50;;;;;;5036581;28;20450;-72
2023/09/11 02:28:59;;;;;;;16.23;14.73;;;23.80;89.40;;;;;;5036861;28;20486;-72
2023/09/11 02:31:26;;;;;;;16.97;15.27;;;23.80;89.40;;;;;;5037380;28;20512;-70
2023/09/11 02:33:53;;;;;;;16.77;14.17;;;23.80;89.40;;;;;;5037144;28;20835;-72
2023/09/11 02:36:20;;;;;;;17.63;15.88;;;23.80;89.60;;;;;;5036555;28;20441;-73
2023/09/11 02:38:48;;;;;;;17.53;15.50;;;23.70;89.70;;;;;;5037139;28;20211;-74
2023/09/11 02:41:14;;;;;;;17.03;15.43;;;23.70;89.80;;;;;;5037009;28;20911;-73
2023/09/11 02:43:41;;;;;;;16.07;14.57;;;23.70;89.90;;;;;;5036606;28;20467;-73
2023/09/11 02:46:08;;;;;;;16.23;14.47;;;23.70;90.00;;;;;;5035797;28;20446;-74
2023/09/11 02:48:35;;;;;;;17.00;15.30;;;23.70;89.90;;;;;;5036355;28;20489;-74
2023/09/11 02:51:02;;;;;;;15.83;14.13;;;23.70;89.90;;;;;;5036334;28;20451;-73
2023/09/11 02:53:28;;;;;;;15.60;14.10;;;23.60;89.80;;;;;;5036271;28;20470;-73
2023/09/11 02:55:57;;;;;;;16.37;14.77;;;23.60;89.90;;;;;;5035871;28;20466;-72
2023/09/11 02:58:23;;;;;;;16.67;15.10;;;23.60;90.00;;;;;;5036775;28;20467;-72
2023/09/11 03:00:50;;;;;;;15.10;13.60;;;23.60;90.00;;;;;;5036728;28;20537;-73
2023/09/11 03:03:17;;;;;;;14.77;13.47;;;23.50;90.00;;;;;;5048287;28;20478;-72
2023/09/11 03:05:44;;;;;;;16.23;14.33;;;23.50;90.00;;;;;;5039637;28;20443;-73
2023/09/11 03:08:11;;;;;;;15.67;13.97;;;23.50;90.00;;;;;;5038777;28;20536;-74
2023/09/11 03:10:38;;;;;;;15.17;13.60;;;23.50;90.10;;;;;;5037746;28;20450;-73
2023/09/11 03:13:07;;;;;;;13.73;12.50;;;23.50;90.10;;;;;;5036672;28;20474;-72
2023/09/11 03:15:34;;;;;;;13.07;11.97;;;23.50;90.10;;;;;;5036480;28;20457;-73
2023/09/11 03:18:01;;;;;;;13.83;12.47;;;23.40;90.10;;;;;;5036332;28;20474;-73
2023/09/11 03:20:28;;;;;;;14.27;12.73;;;23.40;90.10;;;;;;5036642;28;20466;-72
2023/09/11 03:22:54;;;;;;;17.67;13.17;;;23.40;90.20;;;;;;5036634;28;20466;-73
2023/09/11 03:25:26;;;;;;;13.10;11.90;;;23.40;90.20;;;;;;5036032;28;20952;-73
2023/09/11 03:27:52;;;;;;;14.03;12.00;;;23.40;90.30;;;;;;5036047;28;20428;-73
2023/09/11 03:30:20;;;;;;;13.80;12.27;;;23.40;90.40;;;;;;5035647;28;20442;-72
2023/09/11 03:32:47;;;;;;;13.23;12.03;;;23.40;90.50;;;;;;5036302;28;20466;-72
2023/09/11 03:35:14;;;;;;;11.40;10.37;;;23.40;90.60;;;;;;5035870;28;20512;-73
2023/09/11 03:37:42;;;;;;;12.63;11.33;;;23.40;90.70;;;;;;5035757;28;20454;-73
2023/09/11 03:40:13;;;;;;;12.67;11.53;;;23.40;90.50;;;;;;5034616;28;20474;-74
2023/09/11 03:42:39;;;;;;;14.07;12.77;;;23.40;90.40;;;;;;5035858;28;20473;-72
2023/09/11 03:45:08;;;;;;;13.07;11.87;;;23.40;90.50;;;;;;5035689;28;20439;-73
2023/09/11 03:47:36;;;;;;;11.53;10.43;;;23.40;90.60;;;;;;5035696;28;20867;-73
2023/09/11 03:50:04;;;;;;;13.10;11.77;;;23.40;90.50;;;;;;5035241;28;20485;-73
2023/09/11 03:52:30;;;;;;;13.07;11.87;;;23.30;90.40;;;;;;5035220;28;20466;-72
2023/09/11 03:54:57;;;;;;;13.37;12.07;;;23.30;90.40;;;;;;5035437;28;20862;-73
2023/09/11 03:57:24;;;;;;;13.30;12.30;;;23.30;90.40;;;;;;5035415;28;20799;-73
2023/09/11 03:59:51;;;;;;;14.30;12.80;;;23.20;90.40;;;;;;5034529;28;20501;-73
2023/09/11 04:02:17;;;;;;;13.67;12.33;;;23.20;90.40;;;;;;5035009;28;20467;-72
2023/09/11 04:04:45;;;;;;;13.90;12.60;;;23.20;90.40;;;;;;5034891;28;20480;-72
2023/09/11 04:07:12;;;;;;;13.80;12.70;;;23.10;90.40;;;;;;5034118;28;20936;-73
2023/09/11 04:09:39;;;;;;;15.07;13.63;;;23.10;90.40;;;;;;5034272;28;20482;-73
2023/09/11 04:12:06;;;;;;;15.77;14.17;;;23.10;90.50;;;;;;5034198;28;20442;-72
2023/09/11 04:14:37;;;;;;;16.50;13.47;;;23.00;90.60;;;;;;5034379;28;20445;-73
2023/09/11 04:17:04;;;;;;;18.83;14.30;;;23.00;90.70;;;;;;5034085;28;20810;-73
2023/09/11 04:19:31;;;;;;;16.27;13.77;;;23.00;90.70;;;;;;5033479;28;20443;-73
2023/09/11 04:21:59;;;;;;;15.40;13.90;;;23.00;90.70;;;;;;5034278;28;20446;-71
2023/09/11 04:24:26;;;;;;;15.57;14.17;;;22.90;90.70;;;;;;5034368;28;20446;-73
2023/09/11 04:26:52;;;;;;;17.67;15.37;;;22.90;90.90;;;;;;5035077;28;20458;-73
2023/09/11 04:29:20;;;;;;;17.40;15.73;;;22.90;90.80;;;;;;5034170;28;20990;-73
2023/09/11 04:31:47;;;;;;;17.67;15.83;;;22.80;90.80;;;;;;5034265;28;20498;-72
2023/09/11 04:34:14;;;;;;;19.23;17.20;;;22.90;91.00;;;;;;5032313;28;20917;-72
2023/09/11 04:36:40;;;;;;;18.33;16.63;;;22.80;91.10;;;;;;5034432;28;20451;-72
2023/09/11 04:39:11;;;;;;;18.53;16.73;;;22.80;91.20;;;;;;5034583;28;20457;-72
2023/09/11 04:41:38;;;;;;;19.27;17.30;;;22.80;91.30;;;;;;5034241;28;20473;-73
2023/09/11 04:44:05;;;;;;;20.17;17.97;;;22.80;91.40;;;;;;5034517;28;20474;-72
2023/09/11 04:46:32;;;;;;;19.60;17.67;;;22.70;91.40;;;;;;5034093;28;20453;-73
2023/09/11 04:48:59;;;;;;;19.90;17.80;;;22.70;91.40;;;;;;5033734;28;20486;-73
2023/09/11 04:51:26;;;;;;;20.37;18.20;;;22.70;91.50;;;;;;5033814;28;20449;-73
2023/09/11 04:53:52;;;;;;;20.30;18.20;;;22.70;91.50;;;;;;5034278;28;20477;-72
2023/09/11 04:56:21;;;;;;;22.13;18.87;;;22.70;91.60;;;;;;5033641;28;20449;-73
2023/09/11 04:58:48;;;;;;;20.07;18.00;;;22.70;91.60;;;;;;5032481;28;20474;-73
2023/09/11 05:01:14;;;;;;;21.40;19.40;;;22.70;91.60;;;;;;5033657;28;20466;-73
2023/09/11 05:03:41;;;;;;;23.23;19.07;;;22.70;91.70;;;;;;5033652;28;20458;-72
2023/09/11 05:06:08;;;;;;;19.37;17.70;;;22.60;91.60;;;;;;5033448;28;20948;-73
2023/09/11 05:08:35;;;;;;;21.03;18.83;;;22.60;91.60;;;;;;5033720;28;20483;-73
2023/09/11 05:11:02;;;;;;;20.67;18.03;;;22.60;91.60;;;;;;5033678;28;20442;-73
2023/09/11 05:13:30;;;;;;;21.53;18.07;;;22.60;91.70;;;;;;5033935;28;20466;-72
2023/09/11 05:15:57;;;;;;;22.67;17.67;;;22.50;91.70;;;;;;5037262;28;21007;-72
2023/09/11 05:18:24;;;;;;;20.23;18.30;;;22.50;91.80;;;;;;5046135;28;20758;-72
2023/09/11 05:20:51;;;;;;;19.20;16.60;;;22.50;92.00;;;;;;5038083;28;20465;-73
2023/09/11 05:23:18;;;;;;;19.20;17.20;;;22.50;92.00;;;;;;5037435;28;20470;-72
2023/09/11 05:25:48;;;;;;;19.10;17.30;;;22.50;92.00;;;;;;5033852;28;20825;-73
2023/09/11 05:28:15;;;;;;;19.97;17.87;;;22.50;92.00;;;;;;5033499;28;21006;-73
2023/09/11 05:30:43;;;;;;;20.53;18.47;;;22.50;92.10;;;;;;5033410;28;20935;-72
2023/09/11 05:33:10;;;;;;;19.17;17.27;;;22.60;92.20;;;;;;5037370;28;20467;-72
2023/09/11 05:35:38;;;;;;;21.73;18.80;;;22.60;92.20;;;;;;5037391;28;20466;-73
2023/09/11 05:38:05;;;;;;;25.13;18.37;;;22.60;92.20;;;;;;5037412;28;20450;-72
2023/09/11 05:40:31;;;;;;;18.77;16.87;;;22.60;92.20;;;;;;5037146;28;20780;-73
2023/09/11 05:42:58;;;;;;;19.80;17.43;;;22.60;92.20;;;;;;5036673;28;20466;-71
2023/09/11 05:45:25;;;;;;;20.00;18.13;;;22.70;92.30;;;;;;5037366;28;20522;-73
2023/09/11 05:47:53;;;;;;;18.87;16.97;;;22.70;92.40;;;;;;5038213;28;20543;-73
2023/09/11 05:50:20;;;;;;;21.33;19.50;;;22.70;92.40;;;;;;5037563;28;20493;-72
2023/09/11 05:52:47;;;;;;;20.33;18.07;;;22.70;92.40;;;;;;5037149;28;20466;-72
2023/09/11 05:55:13;;;;;;;24.63;18.97;;;22.70;92.40;;;;;;5037217;28;20820;-72
2023/09/11 05:57:40;;;;;;;18.90;17.00;;;22.70;92.50;;;;;;5037587;28;20451;-73
2023/09/11 06:00:12;;;;;;;18.73;16.97;;;22.80;92.60;;;;;;5035955;28;20442;-72
2023/09/11 06:02:39;;;;;;;24.23;19.37;;;22.80;92.60;;;;;;5036351;28;20501;-71
2023/09/11 06:05:08;;;;;;;22.27;19.43;;;22.90;92.60;;;;;;5036791;28;20438;-73
2023/09/11 06:07:35;;;;;;;22.30;20.00;;;22.90;92.50;;;;;;5036410;28;20442;-73
2023/09/11 06:10:02;;;;;;;22.97;19.30;;;23.00;92.60;;;;;;5036606;28;20486;-71
2023/09/11 06:12:30;;;;;;;23.53;18.70;;;23.00;92.50;;;;;;5036846;28;20466;-72
2023/09/11 06:14:58;;;;;;;19.80;17.80;;;23.00;92.50;;;;;;5036678;28;20447;-72
2023/09/11 06:17:27;;;;;;;20.60;17.90;;;23.10;92.40;;;;;;5036212;28;20993;-73
2023/09/11 06:19:53;;;;;;;21.17;19.07;;;23.10;92.40;;;;;;5036296;28;20994;-72
2023/09/11 06:22:22;;;;;;;19.30;17.30;;;23.10;92.30;;;;;;5036284;28;20466;-72
2023/09/11 06:24:49;;;;;;;20.87;18.73;;;23.20;92.30;;;;;;5036396;28;20483;-72
2023/09/11 06:27:16;;;;;;;25.67;18.57;;;23.20;92.30;;;;;;5036239;28;20450;-73
2023/09/11 06:29:42;;;;;;;20.87;18.80;;;23.20;92.40;;;;;;5036307;28;20489;-72
2023/09/11 06:32:11;;;;;;;21.63;19.37;;;23.30;92.50;;;;;;5036543;28;20445;-71
2023/09/11 06:34:38;;;;;;;18.77;16.70;;;23.30;92.50;;;;;;5036629;28;20533;-72
2023/09/11 06:37:06;;;;;;;20.17;18.17;;;23.30;92.50;;;;;;5035520;28;20831;-73
2023/09/11 06:39:34;;;;;;;18.73;16.60;;;23.40;92.40;;;;;;5035408;28;20450;-72
2023/09/11 06:42:01;;;;;;;16.40;14.87;;;23.50;92.40;;;;;;5035358;28;20446;-71
2023/09/11 06:44:27;;;;;;;21.20;14.93;;;23.50;92.30;;;;;;5035382;28;20446;-72
2023/09/11 06:46:54;;;;;;;16.37;14.67;;;23.60;92.10;;;;;;5034564;28;20537;-73
2023/09/11 06:49:21;;;;;;;15.00;13.50;;;23.60;92.20;;;;;;5035905;28;20490;-73
2023/09/11 06:51:48;;;;;;;16.53;13.40;;;23.70;92.10;;;;;;5035748;28;20472;-73
2023/09/11 06:54:14;;;;;;;16.47;13.80;;;23.80;92.10;;;;;;5036381;28;20474;-72
2023/09/11 06:56:44;;;;;;;15.60;12.40;;;23.80;91.90;;;;;;5036461;28;20438;-73
2023/09/11 06:59:10;;;;;;;15.63;14.00;;;23.90;91.70;;;;;;5036453;28;20446;-73
2023/09/11 07:01:39;;;;;;;15.57;11.70;;;23.90;91.40;;;;;;5036847;28;20825;-73
2023/09/11 07:04:08;;;;;;;18.80;14.57;;;24.00;91.20;;;;;;5036344;28;20493;-73
2023/09/11 07:06:34;;;;;;;16.83;12.27;;;24.10;91.00;;;;;;5036268;28;20449;-73
2023/09/11 07:09:04;;;;;;;15.43;11.07;;;24.20;91.10;;;;;;5036251;28;20943;-73
2023/09/11 07:11:31;;;;;;;14.80;12.20;;;24.30;90.70;;;;;;5036369;28;20927;-71
2023/09/11 07:13:59;;;;;;;16.47;13.90;;;24.40;90.60;;;;;;5036581;28;20462;-72
2023/09/11 07:16:26;;;;;;;14.80;13.30;;;24.50;90.40;;;;;;5036578;28;20447;-73
2023/09/11 07:18:53;;;;;;;15.60;13.00;;;24.60;90.30;;;;;;5036236;28;20450;-73
2023/09/11 07:21:20;;;;;;;18.40;12.00;;;24.60;90.30;;;;;;5036631;28;20446;-72
2023/09/11 07:23:46;;;;;;;15.50;11.80;;;24.70;90.00;;;;;;5036974;28;20471;-72
2023/09/11 07:26:13;;;;;;;25.50;12.83;;;24.80;89.20;;;;;;5036605;28;20821;-73
2023/09/11 07:29:02;;;;;;;14.50;11.50;;;24.90;88.90;;;;;;5035986;28;20537;-71
2023/09/11 07:31:30;;;;;;;17.77;11.80;;;25.00;88.50;;;;;;5037437;28;20423;-72
2023/09/11 07:33:59;;;;;;;13.87;10.17;;;25.10;87.50;;;;;;5050076;28;20473;-72
2023/09/11 07:36:29;;;;;;;18.27;10.70;;;25.30;86.80;;;;;;5042525;28;20459;-72
2023/09/11 07:38:58;;;;;;;15.43;10.83;;;25.40;86.10;;;;;;5039636;28;20426;-72
2023/09/11 07:41:25;;;;;;;12.33;10.47;;;25.50;85.60;;;;;;5037709;28;20461;-72
2023/09/11 07:43:53;;;;;;;11.40;9.77;;;25.60;84.90;;;;;;5036751;28;20529;-72
2023/09/11 07:46:24;;;;;;;16.93;10.83;;;25.80;84.30;;;;;;5036235;28;20483;-72
2023/09/11 07:48:50;;;;;;;12.70;10.33;;;25.90;83.60;;;;;;5036483;28;20431;-73
2023/09/11 07:51:17;;;;;;;15.30;9.87;;;26.00;82.60;;;;;;5035720;28;20497;-72
2023/09/11 07:53:45;;;;;;;10.57;9.53;;;26.10;82.30;;;;;;5037019;28;20462;-72
2023/09/11 07:56:12;;;;;;;17.50;9.87;;;26.30;81.60;;;;;;5036256;28;20457;-73
2023/09/11 07:58:40;;;;;;;15.97;9.40;;;26.40;81.10;;;;;;5036608;28;20446;-73
2023/09/11 08:01:06;;;;;;;14.37;9.93;;;26.60;79.90;;;;;;5035722;28;20441;-72
2023/09/11 08:03:35;;;;;;;11.50;7.73;;;26.70;77.60;;;;;;5036101;28;20459;-72
2023/09/11 08:06:04;;;;;;;13.90;8.17;;;26.80;75.60;;;;;;5035729;28;20450;-72
2023/09/11 08:08:30;;;;;;;10.73;7.60;;;27.00;75.00;;;;;;5035730;28;20869;-72
2023/09/11 08:10:57;;;;;;;14.70;7.70;;;27.20;74.50;;;;;;5035873;28;20482;-73
2023/09/11 08:13:24;;;;;;;15.50;8.90;;;27.40;74.50;;;;;;5035251;28;20467;-72
2023/09/11 08:15:51;;;;;;;13.30;7.60;;;27.50;73.80;;;;;;5035290;28;20455;-73
2023/09/11 08:18:18;;;;;;;10.60;7.73;;;27.70;71.10;;;;;;5035558;28;20469;-73
2023/09/11 08:20:47;;;;;;;9.83;7.23;;;27.90;70.20;;;;;;5034715;28;20471;-73
2023/09/11 08:23:13;;;;;;;17.27;7.10;;;28.00;69.30;;;;;;5036007;28;20470;-72
2023/09/11 08:25:40;;;;;;;18.80;6.90;;;28.20;68.40;;;;;;5035550;28;20966;-72
2023/09/11 08:28:07;;;;;;;9.63;6.40;;;28.30;65.30;;;;;;5034632;28;20895;-73
2023/09/11 08:30:35;;;;;;;14.40;6.27;;;28.40;63.50;;;;;;5036018;28;20478;-72
2023/09/11 08:33:02;;;;;;;10.10;6.30;;;28.60;62.80;;;;;;5040181;28;20478;-73
2023/09/11 08:35:29;;;;;;;13.47;6.30;;;28.70;61.70;;;;;;5036792;28;20465;-74
2023/09/11 08:37:58;;;;;;;15.30;7.00;;;28.90;60.90;;;;;;5037974;28;20446;-73
2023/09/11 08:40:30;;;;;;;14.60;6.33;;;29.00;60.90;;;;;;5037374;28;20450;-71
2023/09/11 08:42:57;;;;;;;12.13;6.60;;;29.10;59.50;;;;;;5039204;28;20466;-72
2023/09/11 08:45:28;;;;;;;9.03;6.10;;;29.30;58.90;;;;;;5039383;28;20446;-72
2023/09/11 08:47:57;;;;;;;15.27;5.80;;;29.40;57.20;;;;;;5040434;28;20454;-72
2023/09/11 08:50:31;;;;;;;10.57;5.80;;;29.60;56.70;;;;;;5039986;28;20482;-73
2023/09/11 08:53:01;;;;;;;12.73;6.40;;;29.70;56.60;;;;;;5039800;28;20476;-72
2023/09/11 08:55:29;;;;;;;14.00;7.10;;;29.90;56.30;;;;;;5039946;28;20431;-73
2023/09/11 08:57:59;;;;;;;11.60;6.80;;;30.10;55.60;;;;;;5039256;28;20458;-73
2023/09/11 09:00:28;;;;;;;14.83;6.50;;;30.20;55.00;;;;;;5040090;28;20441;-71
2023/09/11 09:02:54;;;;;;;11.80;6.50;;;30.40;54.80;;;;;;5039510;28;20474;-72
2023/09/11 09:05:22;;;;;;;16.50;7.10;;;30.50;53.70;;;;;;5038957;28;20468;-72
2023/09/11 09:07:49;;;;;;;14.07;6.87;;;30.60;53.40;;;;;;5042212;28;20449;-72
2023/09/11 09:10:18;;;;;;;19.20;7.20;;;30.80;52.60;;;;;;5041354;28;20501;-73
2023/09/11 09:12:45;;;;;;;15.87;7.17;;;30.80;52.40;;;;;;5041972;28;20478;-71
2023/09/11 09:15:13;;;;;;;12.43;6.77;;;30.80;52.00;;;;;;5042182;28;20450;-73
2023/09/11 09:17:40;;;;;;;13.70;6.23;;;30.80;52.90;;;;;;5042943;28;20458;-73
2023/09/11 09:20:08;;;;;;;17.43;6.10;;;31.00;52.50;;;;;;5042255;28;20438;-73
2023/09/11 09:22:35;;;;;;;9.70;6.30;;;31.10;51.60;;;;;;5041614;28;20553;-71
2023/09/11 09:25:02;;;;;;;14.53;6.53;;;31.30;51.70;;;;;;5042307;28;20450;-73
2023/09/11 09:27:36;;;;;;;16.43;7.27;;;31.50;51.90;;;;;;5041896;28;20453;-72
2023/09/11 09:30:03;;;;;;;15.13;6.60;;;31.70;50.30;;;;;;5041322;28;20470;-72
2023/09/11 09:32:34;;;;;;;15.77;6.90;;;32.00;49.60;;;;;;5041259;28;20465;-72
2023/09/11 09:35:02;;;;;;;13.00;6.97;;;32.30;49.50;;;;;;5041212;28;20449;-73
2023/09/11 09:37:30;;;;;;;12.57;7.63;;;32.50;49.40;;;;;;5040569;28;20545;-73
2023/09/11 09:39:57;;;;;;;11.93;7.23;;;32.70;47.80;;;;;;5041074;28;20476;-73
2023/09/11 09:42:23;;;;;;;9.57;6.40;;;32.80;46.90;;;;;;5038556;28;20496;-72
2023/09/11 09:44:53;;;;;;;12.93;7.40;;;32.90;46.50;;;;;;5039707;28;20955;-72
2023/09/11 09:47:20;;;;;;;11.30;7.53;;;33.00;47.00;;;;;;5039976;28;20524;-73
2023/09/11 09:49:49;;;;;;;17.97;7.10;;;33.20;47.00;;;;;;5049716;28;20520;-72
2023/09/11 09:52:18;;;;;;;13.13;7.40;;;33.40;46.90;;;;;;5046934;28;20450;-72
2023/09/11 09:54:49;;;;;;;13.03;6.83;;;33.60;45.40;;;;;;5045788;28;20445;-73
2023/09/11 09:57:17;;;;;;;17.30;7.80;;;33.80;43.90;;;;;;5043721;28;20480;-73
2023/09/11 09:59:47;;;;;;;13.53;8.33;;;34.00;43.30;;;;;;5043301;28;20809;-73
2023/09/11 10:02:22;;;;;;;17.90;8.10;;;34.30;44.70;;;;;;5041987;28;20852;-72
2023/09/11 10:04:52;;;;;;;10.70;6.63;;;34.30;42.50;;;;;;5040475;28;20437;-73
2023/09/11 10:07:36;;;;;;;11.73;7.70;;;34.50;42.90;;;;;;5040007;28;20500;-73
2023/09/11 10:10:19;;;;;;;11.90;8.20;;;34.70;41.20;;;;;;5039421;28;20469;-73
2023/09/11 10:12:46;;;;;;;16.20;8.00;;;34.60;41.70;;;;;;5039884;28;20505;-71
2023/09/11 10:15:13;;;;;;;11.33;7.67;;;34.70;41.20;;;;;;5040060;28;20446;-73
2023/09/11 10:17:42;;;;;;;10.67;7.20;;;34.80;41.80;;;;;;5040512;28;20453;-73
2023/09/11 10:20:09;;;;;;;11.57;8.33;;;34.90;40.70;;;;;;5039772;28;20446;-73
2023/09/11 10:22:38;;;;;;;10.63;8.13;;;35.10;41.40;;;;;;5040445;28;20462;-71
2023/09/11 10:25:06;;;;;;;11.20;7.17;;;35.30;41.40;;;;;;5038760;28;20508;-73
2023/09/11 10:27:34;;;;;;;11.10;7.37;;;35.60;39.10;;;;;;5040556;28;20446;-73
2023/09/11 10:30:04;;;;;;;12.77;7.30;;;35.90;39.30;;;;;;5039216;28;20970;-73
2023/09/11 10:32:38;;;;;;;11.40;7.63;;;36.40;39.00;;;;;;5038104;28;20226;-71
2023/09/11 10:35:07;;;;;;;17.70;7.60;;;36.90;37.70;;;;;;5038385;28;20207;-73
2023/09/11 10:37:38;;;;;;;13.80;7.17;;;37.10;37.20;;;;;;5042518;28;20214;-73
2023/09/11 10:40:07;;;;;;;12.15;7.88;;;37.40;37.00;;;;;;5042900;28;20192;-73
2023/09/11 10:42:34;;;;;;;11.73;6.13;;;37.70;37.30;;;;;;5041030;28;20239;-72
2023/09/11 10:45:04;;;;;;;7.57;6.63;;;37.80;34.40;;;;;;5041059;28;20214;-73
2023/09/11 10:47:33;;;;;;;10.88;6.85;;;38.00;33.50;;;;;;5038966;28;20710;-73
2023/09/11 10:50:00;;;;;;;10.48;6.40;;;38.40;34.30;;;;;;5038116;28;20637;-73
2023/09/11 10:52:28;;;;;;;9.93;6.88;;;38.80;34.00;;;;;;5040588;28;20746;-73
2023/09/11 10:54:57;;;;;;;8.77;7.30;;;39.00;32.60;;;;;;5039537;28;20253;-72
2023/09/11 10:57:24;;;;;;;9.73;6.97;;;38.90;31.70;;;;;;5039257;28;20203;-73
2023/09/11 10:59:50;;;;;;;11.77;7.32;;;39.00;32.20;;;;;;5039337;28;20210;-73
2023/09/11 11:02:22;;;;;;;11.13;6.40;;;39.20;32.10;;;;;;5039775;28;20207;-72
2023/09/11 11:04:48;;;;;;;19.83;6.70;;;39.60;31.30;;;;;;5040078;28;20183;-72
2023/09/11 11:07:16;;;;;;;7.28;6.63;;;39.70;30.10;;;;;;5039600;28;20218;-73
2023/09/11 11:09:49;;;;;;;12.00;6.25;;;40.00;30.10;;;;;;5040201;28;20573;-73
2023/09/11 11:12:32;;;;;;;9.10;6.40;;;40.10;30.00;;;;;;5039800;28;20295;-72
2023/09/11 11:15:22;;;;;;;7.65;6.13;;;40.40;29.90;;;;;;5038943;28;20260;-72
2023/09/11 11:18:03;;;;;;;8.00;6.22;;;40.70;29.50;;;;;;5040818;28;20211;-73
2023/09/11 11:20:30;;;;;;;7.57;6.25;;;41.10;29.60;;;;;;5040457;28;20183;-73
2023/09/11 11:23:07;;;;;;;7.47;5.90;;;41.50;29.20;;;;;;5039369;28;20218;-72
2023/09/11 11:25:35;;;;;;;10.00;6.15;;;41.70;28.00;;;;;;5039433;28;20213;-73
2023/09/11 11:28:07;;;;;;;5.97;5.40;;;41.60;27.50;;;;;;5039601;28;20210;-73
2023/09/11 11:30:36;;;;;;;7.82;5.60;;;41.90;27.90;;;;;;5041261;28;20212;-73
2023/09/11 11:33:05;;;;;;;7.00;6.25;;;42.00;26.90;;;;;;5040848;28;20230;-72
2023/09/11 11:35:32;;;;;;;6.85;6.13;;;41.90;27.30;;;;;;5040767;28;20222;-74
2023/09/11 11:38:00;;;;;;;9.82;5.55;;;42.20;27.40;;;;;;5039823;28;20203;-73
2023/09/11 11:40:27;;;;;;;9.10;5.75;;;42.20;26.70;;;;;;5037759;28;20199;-74
2023/09/11 11:42:56;;;;;;;8.07;5.43;;;42.60;26.70;;;;;;5036031;28;20254;-72
2023/09/11 11:45:23;;;;;;;10.77;5.85;;;43.00;25.80;;;;;;5037911;28;20256;-73
2023/09/11 11:47:51;;;;;;;7.22;6.45;;;43.30;26.10;;;;;;5038845;28;20237;-73
2023/09/11 11:50:20;;;;;;;6.57;5.40;;;43.70;26.00;;;;;;5037275;28;20231;-73
2023/09/11 11:52:47;;;;;;;10.20;5.72;;;44.00;25.60;;;;;;5036826;28;20732;-72
2023/09/11 11:55:22;;;;;;;12.85;5.40;;;44.40;25.10;;;;;;5037335;28;20253;-73
2023/09/11 11:57:52;;;;;;;7.05;4.78;;;44.70;24.50;;;;;;5036316;28;20203;-73
2023/09/11 12:00:21;;;;;;;12.43;5.85;;;44.90;25.20;;;;;;5036971;28;20213;-72
2023/09/11 12:02:47;;;;;;;7.38;5.70;;;45.20;24.20;;;;;;5036821;28;20223;-72
2023/09/11 12:05:15;;;;;;;7.85;5.75;;;45.40;24.20;;;;;;5042282;28;20179;-69
2023/09/11 12:07:43;;;;;;;9.30;6.28;;;45.70;23.80;;;;;;5045237;28;20226;-74
2023/09/11 12:10:10;;;;;;;10.82;6.05;;;45.90;24.00;;;;;;5038896;28;20249;-73
2023/09/11 12:12:40;;;;;;;10.02;6.05;;;46.10;23.80;;;;;;5036708;28;20223;-72
2023/09/11 12:15:08;;;;;;;7.93;5.57;;;46.40;23.30;;;;;;5034522;28;20257;-72
2023/09/11 12:17:36;;;;;;;7.95;5.82;;;46.50;23.30;;;;;;5034417;28;20195;-72
2023/09/11 12:20:14;;;;;;;9.73;6.35;;;46.60;23.10;;;;;;5036782;28;20230;-73
2023/09/11 12:22:43;;;;;;;9.60;6.15;;;46.70;22.50;;;;;;5036803;28;20251;-73
2023/09/11 12:25:10;;;;;;;6.32;5.47;;;46.60;22.70;;;;;;5035537;28;20231;-72
2023/09/11 12:27:37;;;;;;;13.00;6.00;;;46.20;22.70;;;;;;5036460;28;20199;-73
2023/09/11 12:30:06;;;;;;;7.53;5.97;;;46.10;23.20;;;;;;5036945;28;20202;-73
2023/09/11 12:32:33;;;;;;;10.52;6.25;;;46.10;23.20;;;;;;5035359;28;20235;-72
2023/09/11 12:35:01;;;;;;;6.13;5.22;;;46.00;22.90;;;;;;5034374;28;20198;-74
2023/09/11 12:37:28;;;;;;;8.60;5.28;;;46.20;23.30;;;;;;5035399;28;20206;-73